sensor_id;sensor_type;location;lat;lon;timestamp;pressure;altitude;pressure_sealevel;temperature;humidity
31337;BME280;22846;42.654;23.314;2023-02-11T00:00:39;96086.47;;;22.76;40.92
31337;BME280;22846;42.654;23.314;2023-02-11T00:03:04;96083.75;;;22.73;40.93
31337;BME280;22846;42.654;23.314;2023-02-11T00:05:30;96085.28;;;22.74;40.55
31337;BME280;22846;42.654;23.314;2023-02-11T00:07:55;96085.69;;;22.72;41.15
31337;BME280;22846;42.654;23.314;2023-02-11T00:10:21;96084.91;;;22.72;40.98
31337;BME280;22846;42.654;23.314;2023-02-11T00:12:46;96086.09;;;22.67;41.13
31337;BME280;22846;42.654;23.314;2023-02-11T00:15:12;96082.97;;;22.69;41.31
31337;BME280;22846;42.654;23.314;2023-02-11T00:17:37;96088.03;;;22.67;40.77
31337;BME280;22846;42.654;23.314;2023-02-11T00:20:03;96094.28;;;22.67;40.87
31337;BME280;22846;42.654;23.314;2023-02-11T00:22:28;96077.91;;;22.60;40.96
31337;BME280;22846;42.654;23.314;2023-02-11T00:24:53;96096.59;;;22.65;41.20
31337;BME280;22846;42.654;23.314;2023-02-11T00:27:21;96090.00;;;22.63;40.96
31337;BME280;22846;42.654;23.314;2023-02-11T00:29:47;96091.91;;;22.62;41.15
31337;BME280;22846;42.654;23.314;2023-02-11T00:32:12;96087.63;;;22.61;41.06
31337;BME280;22846;42.654;23.314;2023-02-11T00:34:37;96084.50;;;22.56;41.32
31337;BME280;22846;42.654;23.314;2023-02-11T00:37:03;96085.72;;;22.58;41.00
31337;BME280;22846;42.654;23.314;2023-02-11T00:39:29;96086.88;;;22.57;40.99
31337;BME280;22846;42.654;23.314;2023-02-11T00:41:54;96081.41;;;22.57;40.94
31337;BME280;22846;42.654;23.314;2023-02-11T00:44:20;96082.59;;;22.56;41.00
31337;BME280;22846;42.654;23.314;2023-02-11T00:46:45;96082.19;;;22.54;41.27
31337;BME280;22846;42.654;23.314;2023-02-11T00:49:11;96069.75;;;22.50;41.13
31337;BME280;22846;42.654;23.314;2023-02-11T00:51:36;96060.41;;;22.47;40.97
31337;BME280;22846;42.654;23.314;2023-02-11T00:54:03;96074.41;;;22.49;41.04
31337;BME280;22846;42.654;23.314;2023-02-11T00:56:28;96073.25;;;22.50;41.22
31337;BME280;22846;42.654;23.314;2023-02-11T00:58:54;96079.06;;;22.49;41.09
31337;BME280;22846;42.654;23.314;2023-02-11T01:01:19;96074.03;;;22.47;41.05
31337;BME280;22846;42.654;23.314;2023-02-11T01:03:44;96074.44;;;22.46;41.02
31337;BME280;22846;42.654;23.314;2023-02-11T01:06:10;96072.06;;;22.44;41.08
31337;BME280;22846;42.654;23.314;2023-02-11T01:08:37;96069.75;;;22.43;41.00
31337;BME280;22846;42.654;23.314;2023-02-11T01:11:10;96076.34;;;22.42;40.97
31337;BME280;22846;42.654;23.314;2023-02-11T01:13:36;96072.88;;;22.41;40.91
31337;BME280;22846;42.654;23.314;2023-02-11T01:16:04;96077.53;;;22.41;41.22
31337;BME280;22846;42.654;23.314;2023-02-11T01:18:31;96063.50;;;22.39;41.23
31337;BME280;22846;42.654;23.314;2023-02-11T01:20:56;96067.44;;;22.38;40.92
31337;BME280;22846;42.654;23.314;2023-02-11T01:23:22;96065.47;;;22.38;41.01
31337;BME280;22846;42.654;23.314;2023-02-11T01:25:47;96061.19;;;22.30;41.10
31337;BME280;22846;42.654;23.314;2023-02-11T01:28:19;96061.94;;;22.34;41.40
31337;BME280;22846;42.654;23.314;2023-02-11T01:30:45;96061.94;;;22.34;41.22
31337;BME280;22846;42.654;23.314;2023-02-11T01:33:11;96061.59;;;22.32;41.00
31337;BME280;22846;42.654;23.314;2023-02-11T01:35:38;96060.03;;;22.31;41.12
31337;BME280;22846;42.654;23.314;2023-02-11T01:38:05;96057.31;;;22.31;40.76
31337;BME280;22846;42.654;23.314;2023-02-11T01:40:31;96055.75;;;22.30;41.01
31337;BME280;22846;42.654;23.314;2023-02-11T01:42:56;96056.09;;;22.29;40.96
31337;BME280;22846;42.654;23.314;2023-02-11T01:45:53;96050.66;;;22.29;41.27
31337;BME280;22846;42.654;23.314;2023-02-11T01:48:22;96062.31;;;22.26;40.89
31337;BME280;22846;42.654;23.314;2023-02-11T01:50:53;96053.34;;;22.25;41.41
31337;BME280;22846;42.654;23.314;2023-02-11T01:53:21;96047.16;;;22.22;41.02
31337;BME280;22846;42.654;23.314;2023-02-11T01:56:07;96055.72;;;22.23;41.12
31337;BME280;22846;42.654;23.314;2023-02-11T01:58:54;96050.63;;;22.22;40.83
31337;BME280;22846;42.654;23.314;2023-02-11T02:01:24;96054.16;;;22.23;41.04
31337;BME280;22846;42.654;23.314;2023-02-11T02:03:53;96049.88;;;22.22;40.78
31337;BME280;22846;42.654;23.314;2023-02-11T02:06:31;96056.88;;;22.19;40.92
31337;BME280;22846;42.654;23.314;2023-02-11T02:09:12;96051.44;;;22.19;41.13
31337;BME280;22846;42.654;23.314;2023-02-11T02:11:40;96049.47;;;22.20;41.08
31337;BME280;22846;42.654;23.314;2023-02-11T02:14:06;96048.31;;;22.17;41.02
31337;BME280;22846;42.654;23.314;2023-02-11T02:16:34;96054.16;;;22.16;41.29
31337;BME280;22846;42.654;23.314;2023-02-11T02:22:05;96049.06;;;22.18;41.10
31337;BME280;22846;42.654;23.314;2023-02-11T02:25:55;96059.22;;;22.14;41.25
31337;BME280;22846;42.654;23.314;2023-02-11T02:27:49;96056.88;;;22.12;41.26
31337;BME280;22846;42.654;23.314;2023-02-11T02:33:16;96048.69;;;22.09;41.12
31337;BME280;22846;42.654;23.314;2023-02-11T02:36:00;96045.59;;;22.07;41.33
31337;BME280;22846;42.654;23.314;2023-02-11T02:41:09;96053.34;;;22.05;41.27
31337;BME280;22846;42.654;23.314;2023-02-11T02:43:38;96046.75;;;22.06;40.94
31337;BME280;22846;42.654;23.314;2023-02-11T02:48:42;96040.91;;;22.04;41.18
31337;BME280;22846;42.654;23.314;2023-02-11T03:05:35;96054.53;;;21.97;41.16
31337;BME280;22846;42.654;23.314;2023-02-11T03:08:30;96059.56;;;21.95;40.89
31337;BME280;22846;42.654;23.314;2023-02-11T03:10:58;96051.41;;;21.95;41.66
31337;BME280;22846;42.654;23.314;2023-02-11T03:13:30;96052.56;;;21.94;41.33
31337;BME280;22846;42.654;23.314;2023-02-11T03:16:01;96046.34;;;21.90;41.04
31337;BME280;22846;42.654;23.314;2023-02-11T03:18:29;96049.44;;;21.92;41.06
31337;BME280;22846;42.654;23.314;2023-02-11T03:20:55;96051.00;;;21.93;41.39
31337;BME280;22846;42.654;23.314;2023-02-11T03:23:46;96049.44;;;21.92;41.16
31337;BME280;22846;42.654;23.314;2023-02-11T03:26:38;96054.13;;;21.91;41.18
31337;BME280;22846;42.654;23.314;2023-02-11T03:31:55;96049.84;;;21.90;41.18
31337;BME280;22846;42.654;23.314;2023-02-11T03:34:39;96045.94;;;21.88;41.11
31337;BME280;22846;42.654;23.314;2023-02-11T03:39:38;96042.06;;;21.85;41.29
31337;BME280;22846;42.654;23.314;2023-02-11T03:42:07;96042.06;;;21.85;41.25
31337;BME280;22846;42.654;23.314;2023-02-11T03:44:48;96039.34;;;21.85;41.50
31337;BME280;22846;42.654;23.314;2023-02-11T03:47:18;96044.00;;;21.85;41.19
31337;BME280;22846;42.654;23.314;2023-02-11T03:49:46;96046.31;;;21.83;41.25
31337;BME280;22846;42.654;23.314;2023-02-11T03:52:14;96047.09;;;21.83;41.06
31337;BME280;22846;42.654;23.314;2023-02-11T03:54:43;96036.63;;;21.82;41.05
31337;BME280;22846;42.654;23.314;2023-02-11T03:57:10;96033.50;;;21.80;41.39
31337;BME280;22846;42.654;23.314;2023-02-11T03:59:56;96036.97;;;21.80;41.12
31337;BME280;22846;42.654;23.314;2023-02-11T04:02:25;96045.16;;;21.80;40.95
31337;BME280;22846;42.654;23.314;2023-02-11T04:04:52;96045.53;;;21.79;41.10
31337;BME280;22846;42.654;23.314;2023-02-11T04:07:17;96043.22;;;21.77;41.29
31337;BME280;22846;42.654;23.314;2023-02-11T04:09:43;96042.81;;;21.72;41.15
31337;BME280;22846;42.654;23.314;2023-02-11T04:12:08;96040.09;;;21.75;41.12
31337;BME280;22846;42.654;23.314;2023-02-11T04:14:33;96049.03;;;21.76;41.01
31337;BME280;22846;42.654;23.314;2023-02-11T04:16:59;96041.25;;;21.74;41.22
31337;BME280;22846;42.654;23.314;2023-02-11T04:19:24;96044.75;;;21.75;41.00
31337;BME280;22846;42.654;23.314;2023-02-11T04:21:50;96042.41;;;21.70;41.40
31337;BME280;22846;42.654;23.314;2023-02-11T04:24:15;96045.13;;;21.73;40.99
31337;BME280;22846;42.654;23.314;2023-02-11T04:26:40;96040.09;;;21.68;41.12
31337;BME280;22846;42.654;23.314;2023-02-11T04:29:06;96053.69;;;21.72;41.42
31337;BME280;22846;42.654;23.314;2023-02-11T04:31:32;96043.19;;;21.70;41.42
31337;BME280;22846;42.654;23.314;2023-02-11T04:33:57;96038.94;;;21.69;41.15
31337;BME280;22846;42.654;23.314;2023-02-11T04:36:23;96035.81;;;21.67;41.19
31337;BME280;22846;42.654;23.314;2023-02-11T04:38:48;96032.69;;;21.69;41.41
31337;BME280;22846;42.654;23.314;2023-02-11T04:41:13;96026.84;;;21.67;41.18
31337;BME280;22846;42.654;23.314;2023-02-11T04:43:39;96031.13;;;21.68;41.41
31337;BME280;22846;42.654;23.314;2023-02-11T04:46:04;96032.28;;;21.67;40.97
31337;BME280;22846;42.654;23.314;2023-02-11T04:48:30;96029.56;;;21.67;41.15
31337;BME280;22846;42.654;23.314;2023-02-11T04:50:55;96036.16;;;21.66;41.21
31337;BME280;22846;42.654;23.314;2023-02-11T04:53:21;96029.97;;;21.65;41.18
31337;BME280;22846;42.654;23.314;2023-02-11T04:55:49;96032.28;;;21.63;41.32
31337;BME280;22846;42.654;23.314;2023-02-11T04:58:15;96033.84;;;21.64;41.34
31337;BME280;22846;42.654;23.314;2023-02-11T05:00:41;96024.13;;;21.60;41.18
31337;BME280;22846;42.654;23.314;2023-02-11T05:03:06;96035.81;;;21.64;41.20
31337;BME280;22846;42.654;23.314;2023-02-11T05:05:31;96027.25;;;21.62;41.12
31337;BME280;22846;42.654;23.314;2023-02-11T05:07:57;96024.53;;;21.62;41.23
31337;BME280;22846;42.654;23.314;2023-02-11T05:10:22;96021.81;;;21.62;41.22
31337;BME280;22846;42.654;23.314;2023-02-11T05:12:48;96014.03;;;21.60;41.12
31337;BME280;22846;42.654;23.314;2023-02-11T05:15:14;96020.25;;;21.61;41.25
31337;BME280;22846;42.654;23.314;2023-02-11T05:17:39;96013.63;;;21.58;41.14
31337;BME280;22846;42.654;23.314;2023-02-11T05:20:05;96021.41;;;21.60;41.10
31337;BME280;22846;42.654;23.314;2023-02-11T05:22:30;96009.34;;;21.57;41.19
31337;BME280;22846;42.654;23.314;2023-02-11T05:24:56;96017.50;;;21.57;41.09
31337;BME280;22846;42.654;23.314;2023-02-11T05:27:21;96028.41;;;21.57;41.36
31337;BME280;22846;42.654;23.314;2023-02-11T05:29:46;96025.28;;;21.55;41.37
31337;BME280;22846;42.654;23.314;2023-02-11T05:32:12;96026.41;;;21.54;41.11
31337;BME280;22846;42.654;23.314;2023-02-11T05:34:37;96020.19;;;21.54;41.21
31337;BME280;22846;42.654;23.314;2023-02-11T05:37:03;96010.06;;;21.51;41.12
31337;BME280;22846;42.654;23.314;2023-02-11T05:39:28;96017.47;;;21.54;41.00
31337;BME280;22846;42.654;23.314;2023-02-11T05:41:53;96024.84;;;21.53;41.43
31337;BME280;22846;42.654;23.314;2023-02-11T05:44:19;96021.34;;;21.53;41.28
31337;BME280;22846;42.654;23.314;2023-02-11T05:46:45;96021.75;;;21.51;41.20
31337;BME280;22846;42.654;23.314;2023-02-11T05:49:10;96026.41;;;21.51;41.06
31337;BME280;22846;42.654;23.314;2023-02-11T05:51:36;96026.78;;;21.53;41.28
31337;BME280;22846;42.654;23.314;2023-02-11T05:54:01;96017.84;;;21.49;41.32
31337;BME280;22846;42.654;23.314;2023-02-11T05:56:26;96023.69;;;21.51;41.34
31337;BME280;22846;42.654;23.314;2023-02-11T05:58:52;96024.84;;;21.53;41.33
31337;BME280;22846;42.654;23.314;2023-02-11T06:01:17;96024.06;;;21.53;41.45
31337;BME280;22846;42.654;23.314;2023-02-11T06:03:43;96022.13;;;21.50;41.47
31337;BME280;22846;42.654;23.314;2023-02-11T06:06:10;96042.38;;;21.56;41.30
31337;BME280;22846;42.654;23.314;2023-02-11T06:08:36;96025.63;;;21.54;41.32
31337;BME280;22846;42.654;23.314;2023-02-11T06:11:01;96032.66;;;21.58;41.36
31337;BME280;22846;42.654;23.314;2023-02-11T06:13:27;96045.13;;;21.59;41.60
31337;BME280;22846;42.654;23.314;2023-02-11T06:15:59;96042.00;;;21.61;41.54
31337;BME280;22846;42.654;23.314;2023-02-11T06:18:25;96039.69;;;21.63;41.29
31337;BME280;22846;42.654;23.314;2023-02-11T06:20:51;96043.56;;;21.65;41.40
31337;BME280;22846;42.654;23.314;2023-02-11T06:23:16;96038.91;;;21.66;41.07
31337;BME280;22846;42.654;23.314;2023-02-11T06:25:42;96043.56;;;21.72;41.35
31337;BME280;22846;42.654;23.314;2023-02-11T06:28:07;96045.16;;;21.77;41.52
31337;BME280;22846;42.654;23.314;2023-02-11T06:30:35;96038.16;;;21.79;42.14
31337;BME280;22846;42.654;23.314;2023-02-11T06:33:01;96035.84;;;21.88;42.96
31337;BME280;22846;42.654;23.314;2023-02-11T06:35:27;96040.91;;;21.97;43.55
31337;BME280;22846;42.654;23.314;2023-02-11T06:37:52;96040.13;;;22.00;43.85
31337;BME280;22846;42.654;23.314;2023-02-11T06:40:19;96035.47;;;22.04;44.37
31337;BME280;22846;42.654;23.314;2023-02-11T06:42:44;96026.13;;;21.98;44.61
31337;BME280;22846;42.654;23.314;2023-02-11T06:45:10;96041.69;;;22.18;45.03
31337;BME280;22846;42.654;23.314;2023-02-11T06:47:40;96051.06;;;22.41;44.94
31337;BME280;22846;42.654;23.314;2023-02-11T06:50:07;96044.78;;;22.76;44.54
31337;BME280;22846;42.654;23.314;2023-02-11T06:52:33;96050.59;;;23.06;43.22
31337;BME280;22846;42.654;23.314;2023-02-11T06:54:59;96041.56;;;23.26;42.30
31337;BME280;22846;42.654;23.314;2023-02-11T06:57:24;96044.22;;;23.40;39.36
31337;BME280;22846;42.654;23.314;2023-02-11T06:59:50;96047.34;;;23.42;38.60
31337;BME280;22846;42.654;23.314;2023-02-11T07:02:15;96058.25;;;23.42;39.20
31337;BME280;22846;42.654;23.314;2023-02-11T07:04:41;96054.78;;;23.41;39.97
31337;BME280;22846;42.654;23.314;2023-02-11T07:07:06;96052.38;;;23.47;40.25
31337;BME280;22846;42.654;23.314;2023-02-11T07:09:32;96060.09;;;23.66;40.58
31337;BME280;22846;42.654;23.314;2023-02-11T07:11:57;96031.94;;;23.83;40.54
31337;BME280;22846;42.654;23.314;2023-02-11T07:14:22;96046.94;;;24.18;39.96
31337;BME280;22846;42.654;23.314;2023-02-11T07:16:48;96039.41;;;24.33;39.89
31337;BME280;22846;42.654;23.314;2023-02-11T07:19:13;96022.25;;;24.32;39.48
31337;BME280;22846;42.654;23.314;2023-02-11T07:21:38;96038.06;;;24.58;39.97
31337;BME280;22846;42.654;23.314;2023-02-11T07:24:10;96037.53;;;24.70;40.17
31337;BME280;22846;42.654;23.314;2023-02-11T07:26:35;96033.47;;;24.88;40.32
31337;BME280;22846;42.654;23.314;2023-02-11T07:29:01;96028.22;;;25.04;39.97
31337;BME280;22846;42.654;23.314;2023-02-11T07:31:28;96022.28;;;25.09;37.98
31337;BME280;22846;42.654;23.314;2023-02-11T07:33:56;96018.59;;;25.26;39.35
31337;BME280;22846;42.654;23.314;2023-02-11T07:36:22;96011.50;;;25.29;38.69
31337;BME280;22846;42.654;23.314;2023-02-11T07:38:48;96018.44;;;25.40;38.92
31337;BME280;22846;42.654;23.314;2023-02-11T07:41:15;96007.44;;;25.44;39.10
31337;BME280;22846;42.654;23.314;2023-02-11T07:43:42;96008.19;;;25.44;39.71
31337;BME280;22846;42.654;23.314;2023-02-11T07:46:19;96004.22;;;25.49;39.08
31337;BME280;22846;42.654;23.314;2023-02-11T07:48:45;96006.16;;;25.52;39.30
31337;BME280;22846;42.654;23.314;2023-02-11T07:51:13;96010.06;;;25.51;39.47
31337;BME280;22846;42.654;23.314;2023-02-11T07:53:40;96008.91;;;25.52;39.43
31337;BME280;22846;42.654;23.314;2023-02-11T07:56:07;96008.09;;;25.51;39.73
31337;BME280;22846;42.654;23.314;2023-02-11T07:58:33;96008.09;;;25.51;39.68
31337;BME280;22846;42.654;23.314;2023-02-11T08:01:06;96009.72;;;25.49;39.88
31337;BME280;22846;42.654;23.314;2023-02-11T08:03:33;96006.22;;;25.48;39.93
31337;BME280;22846;42.654;23.314;2023-02-11T08:06:05;96006.97;;;25.49;40.00
31337;BME280;22846;42.654;23.314;2023-02-11T08:08:31;96005.69;;;25.57;39.93
31337;BME280;22846;42.654;23.314;2023-02-11T08:10:57;95998.28;;;25.54;40.17
31337;BME280;22846;42.654;23.314;2023-02-11T08:13:22;96005.72;;;25.53;39.90
31337;BME280;22846;42.654;23.314;2023-02-11T08:15:48;95992.84;;;25.50;40.27
31337;BME280;22846;42.654;23.314;2023-02-11T08:18:13;95993.22;;;25.52;39.85
31337;BME280;22846;42.654;23.314;2023-02-11T08:20:39;95991.69;;;25.51;39.03
31337;BME280;22846;42.654;23.314;2023-02-11T08:23:06;95992.91;;;25.47;38.81
31337;BME280;22846;42.654;23.314;2023-02-11T08:25:32;95996.81;;;25.46;38.93
31337;BME280;22846;42.654;23.314;2023-02-11T08:27:57;96001.53;;;25.45;38.97
31337;BME280;22846;42.654;23.314;2023-02-11T08:30:23;96000.72;;;25.48;39.06
31337;BME280;22846;42.654;23.314;2023-02-11T08:32:49;95997.66;;;25.43;39.13
31337;BME280;22846;42.654;23.314;2023-02-11T08:35:15;96002.31;;;25.46;39.29
31337;BME280;22846;42.654;23.314;2023-02-11T08:37:40;96005.78;;;25.50;39.33
31337;BME280;22846;42.654;23.314;2023-02-11T08:40:06;95996.75;;;25.53;38.79
31337;BME280;22846;42.654;23.314;2023-02-11T08:42:31;95977.72;;;25.42;39.14
31337;BME280;22846;42.654;23.314;2023-02-11T08:44:57;96002.94;;;25.57;38.86
31337;BME280;22846;42.654;23.314;2023-02-11T08:47:22;96002.94;;;25.57;39.30
31337;BME280;22846;42.654;23.314;2023-02-11T08:49:47;96001.00;;;25.57;38.90
31337;BME280;22846;42.654;23.314;2023-02-11T08:52:13;95999.78;;;25.58;38.74
31337;BME280;22846;42.654;23.314;2023-02-11T08:54:39;96002.84;;;25.63;38.77
31337;BME280;22846;42.654;23.314;2023-02-11T08:57:04;96013.78;;;25.63;38.74
31337;BME280;22846;42.654;23.314;2023-02-11T08:59:30;96007.13;;;25.64;38.27
31337;BME280;22846;42.654;23.314;2023-02-11T09:01:55;96002.84;;;25.63;38.60
31337;BME280;22846;42.654;23.314;2023-02-11T09:04:22;95997.38;;;25.63;38.23
31337;BME280;22846;42.654;23.314;2023-02-11T09:06:47;95983.06;;;25.53;38.15
31337;BME280;22846;42.654;23.314;2023-02-11T09:09:14;95997.38;;;25.63;38.33
31337;BME280;22846;42.654;23.314;2023-02-11T09:11:42;95999.72;;;25.65;38.01
31337;BME280;22846;42.654;23.314;2023-02-11T09:14:15;95998.94;;;25.64;38.29
31337;BME280;22846;42.654;23.314;2023-02-11T09:16:40;95990.25;;;25.69;38.22
31337;BME280;22846;42.654;23.314;2023-02-11T09:19:08;95992.63;;;25.67;38.07
31337;BME280;22846;42.654;23.314;2023-02-11T09:21:34;95991.06;;;25.66;38.03
31337;BME280;22846;42.654;23.314;2023-02-11T09:23:59;95970.78;;;25.64;37.82
31337;BME280;22846;42.654;23.314;2023-02-11T09:26:27;95989.53;;;25.65;37.80
31337;BME280;22846;42.654;23.314;2023-02-11T09:28:53;95985.59;;;25.66;37.77
31337;BME280;22846;42.654;23.314;2023-02-11T09:31:21;95980.13;;;25.66;37.94
31337;BME280;22846;42.654;23.314;2023-02-11T09:33:48;95976.97;;;25.68;37.77
31337;BME280;22846;42.654;23.314;2023-02-11T09:36:20;95981.69;;;25.67;37.95
31337;BME280;22846;42.654;23.314;2023-02-11T09:38:46;95968.34;;;25.69;37.60
31337;BME280;22846;42.654;23.314;2023-02-11T09:44:01;95972.66;;;25.70;37.80
31337;BME280;22846;42.654;23.314;2023-02-11T09:46:35;95967.16;;;25.70;37.38
31337;BME280;22846;42.654;23.314;2023-02-11T09:49:02;95948.13;;;25.60;37.35
31337;BME280;22846;42.654;23.314;2023-02-11T09:51:40;95951.94;;;25.69;37.32
31337;BME280;22846;42.654;23.314;2023-02-11T09:54:36;95954.31;;;25.67;37.49
31337;BME280;22846;42.654;23.314;2023-02-11T09:57:00;95931.41;;;25.55;37.51
31337;BME280;22846;42.654;23.314;2023-02-11T09:59:25;95944.94;;;25.65;37.71
31337;BME280;22846;42.654;23.314;2023-02-11T10:01:59;95938.31;;;25.62;37.42
31337;BME280;22846;42.654;23.314;2023-02-11T10:07:35;95924.28;;;25.61;37.33
31337;BME280;22846;42.654;23.314;2023-02-11T10:23:44;95895.34;;;25.60;37.58
31337;BME280;22846;42.654;23.314;2023-02-11T10:26:13;95883.66;;;25.56;37.46
31337;BME280;22846;42.654;23.314;2023-02-11T10:28:43;95873.50;;;25.56;37.58
31337;BME280;22846;42.654;23.314;2023-02-11T10:33:39;95861.31;;;25.61;37.34
31337;BME280;22846;42.654;23.314;2023-02-11T10:36:07;95844.91;;;25.61;37.11
31337;BME280;22846;42.654;23.314;2023-02-11T10:38:35;95847.97;;;25.62;37.49
31337;BME280;22846;42.654;23.314;2023-02-11T10:41:01;95833.94;;;25.61;37.36
31337;BME280;22846;42.654;23.314;2023-02-11T10:43:28;95828.84;;;25.59;37.52
31337;BME280;22846;42.654;23.314;2023-02-11T10:45:55;95830.78;;;25.62;37.48
31337;BME280;22846;42.654;23.314;2023-02-11T10:54:14;95817.81;;;25.66;37.56
31337;BME280;22846;42.654;23.314;2023-02-11T10:56:48;95808.38;;;25.67;37.47
31337;BME280;22846;42.654;23.314;2023-02-11T11:06:54;95806.72;;;25.76;37.10
31337;BME280;22846;42.654;23.314;2023-02-11T11:09:27;95802.00;;;25.77;37.33
31337;BME280;22846;42.654;23.314;2023-02-11T11:11:56;95785.97;;;25.75;36.98
31337;BME280;22846;42.654;23.314;2023-02-11T11:14:23;95786.69;;;25.79;37.31
31337;BME280;22846;42.654;23.314;2023-02-11T11:16:53;95794.50;;;25.81;37.37
31337;BME280;22846;42.654;23.314;2023-02-11T11:19:24;95791.06;;;25.73;37.73
31337;BME280;22846;42.654;23.314;2023-02-11T11:21:54;95785.16;;;25.75;37.69
31337;BME280;22846;42.654;23.314;2023-02-11T11:24:26;95793.78;;;25.77;37.32
31337;BME280;22846;42.654;23.314;2023-02-11T11:26:58;95791.41;;;25.79;37.46
31337;BME280;22846;42.654;23.314;2023-02-11T11:29:31;95793.38;;;25.78;37.50
31337;BME280;22846;42.654;23.314;2023-02-11T11:32:04;95778.13;;;25.77;37.79
31337;BME280;22846;42.654;23.314;2023-02-11T11:34:36;95774.44;;;25.87;37.66
31337;BME280;22846;42.654;23.314;2023-02-11T11:39:35;95784.81;;;25.96;37.56
31337;BME280;22846;42.654;23.314;2023-02-11T11:42:23;95763.69;;;25.96;37.47
31337;BME280;22846;42.654;23.314;2023-02-11T11:47:44;95763.56;;;26.03;37.72
31337;BME280;22846;42.654;23.314;2023-02-11T11:50:33;95763.06;;;26.08;37.47
31337;BME280;22846;42.654;23.314;2023-02-11T11:53:04;95759.88;;;26.10;37.55
31337;BME280;22846;42.654;23.314;2023-02-11T11:55:44;95763.34;;;26.14;37.58
31337;BME280;22846;42.654;23.314;2023-02-11T11:58:17;95757.44;;;26.15;36.20
31337;BME280;22846;42.654;23.314;2023-02-11T12:00:52;95742.53;;;25.97;34.55
31337;BME280;22846;42.654;23.314;2023-02-11T12:29:43;95700.72;;;25.31;31.63
31337;BME280;22846;42.654;23.314;2023-02-11T12:35:01;95689.38;;;25.52;32.16
31337;BME280;22846;42.654;23.314;2023-02-11T12:41:18;95683.91;;;25.71;32.67
31337;BME280;22846;42.654;23.314;2023-02-11T12:44:14;95676.38;;;25.79;33.04
31337;BME280;22846;42.654;23.314;2023-02-11T12:46:56;95674.69;;;25.85;32.85
31337;BME280;22846;42.654;23.314;2023-02-11T12:50:09;95681.25;;;25.91;33.26
31337;BME280;22846;42.654;23.314;2023-02-11T12:52:45;95681.84;;;25.98;33.38
31337;BME280;22846;42.654;23.314;2023-02-11T12:55:26;95673.16;;;26.03;33.11
31337;BME280;22846;42.654;23.314;2023-02-11T12:57:55;95668.34;;;26.07;33.55
31337;BME280;22846;42.654;23.314;2023-02-11T13:00:37;95666.72;;;26.10;33.42
31337;BME280;22846;42.654;23.314;2023-02-11T13:03:12;95659.22;;;26.14;33.50
31337;BME280;22846;42.654;23.314;2023-02-11T13:08:16;95666.88;;;26.22;33.46
31337;BME280;22846;42.654;23.314;2023-02-11T13:10:46;95657.78;;;26.25;33.72
31337;BME280;22846;42.654;23.314;2023-02-11T13:13:22;95653.03;;;26.29;33.60
31337;BME280;22846;42.654;23.314;2023-02-11T13:16:05;95658.00;;;26.34;33.45
31337;BME280;22846;42.654;23.314;2023-02-11T13:24:58;95646.94;;;26.38;33.39
31337;BME280;22846;42.654;23.314;2023-02-11T13:27:55;95647.72;;;26.38;33.37
31337;BME280;22846;42.654;23.314;2023-02-11T13:30:25;95644.16;;;26.41;33.51
31337;BME280;22846;42.654;23.314;2023-02-11T13:35:38;95643.75;;;26.43;33.84
31337;BME280;22846;42.654;23.314;2023-02-11T13:38:17;95645.63;;;26.46;34.36
31337;BME280;22846;42.654;23.314;2023-02-11T13:40:44;95639.22;;;26.52;34.81
31337;BME280;22846;42.654;23.314;2023-02-11T13:43:23;95638.78;;;26.53;35.64
31337;BME280;22846;42.654;23.314;2023-02-11T13:45:50;95638.63;;;26.60;35.75
31337;BME280;22846;42.654;23.314;2023-02-11T13:48:33;95632.44;;;26.56;35.89
31337;BME280;22846;42.654;23.314;2023-02-11T13:51:09;95617.53;;;26.57;35.83
31337;BME280;22846;42.654;23.314;2023-02-11T13:53:52;95624.66;;;26.55;32.52
31337;BME280;22846;42.654;23.314;2023-02-11T13:56:34;95614.44;;;26.55;33.06
31337;BME280;22846;42.654;23.314;2023-02-11T13:59:02;95618.22;;;26.61;33.56
31337;BME280;22846;42.654;23.314;2023-02-11T14:04:30;95598.19;;;26.64;31.28
31337;BME280;22846;42.654;23.314;2023-02-11T14:07:32;95600.34;;;26.73;31.83
31337;BME280;22846;42.654;23.314;2023-02-11T14:21:18;95596.97;;;26.14;28.78
31337;BME280;22846;42.654;23.314;2023-02-11T14:23:45;95595.63;;;26.22;23.47
31337;BME280;22846;42.654;23.314;2023-02-11T14:28:59;95592.50;;;26.40;28.23
31337;BME280;22846;42.654;23.314;2023-02-11T14:37:00;95586.19;;;26.58;27.38
31337;BME280;22846;42.654;23.314;2023-02-11T14:39:59;95590.13;;;26.73;27.75
31337;BME280;22846;42.654;23.314;2023-02-11T14:42:29;95584.72;;;26.86;28.03
31337;BME280;22846;42.654;23.314;2023-02-11T14:44:57;95590.19;;;27.02;28.68
31337;BME280;22846;42.654;23.314;2023-02-11T14:47:50;95582.75;;;27.02;19.27
31337;BME280;22846;42.654;23.314;2023-02-11T14:50:56;95595.88;;;26.79;24.98
31337;BME280;22846;42.654;23.314;2023-02-11T14:53:23;95590.91;;;26.74;27.18
31337;BME280;22846;42.654;23.314;2023-02-11T14:55:51;95599.03;;;26.77;28.31
31337;BME280;22846;42.654;23.314;2023-02-11T14:58:27;95589.94;;;26.48;20.51
31337;BME280;22846;42.654;23.314;2023-02-11T15:03:30;95571.47;;;26.17;27.51
31337;BME280;22846;42.654;23.314;2023-02-11T15:06:05;95576.75;;;26.08;28.04
31337;BME280;22846;42.654;23.314;2023-02-11T15:08:34;95590.81;;;26.10;28.55
31337;BME280;22846;42.654;23.314;2023-02-11T15:11:02;95592.00;;;26.09;28.95
31337;BME280;22846;42.654;23.314;2023-02-11T15:13:32;95583.03;;;26.09;29.51
31337;BME280;22846;42.654;23.314;2023-02-11T15:16:02;95575.63;;;26.06;29.67
31337;BME280;22846;42.654;23.314;2023-02-11T15:18:36;95582.66;;;26.07;29.81
31337;BME280;22846;42.654;23.314;2023-02-11T15:21:04;95572.13;;;26.05;30.17
31337;BME280;22846;42.654;23.314;2023-02-11T15:23:30;95577.94;;;26.07;30.71